עמוד ראשי
METAR-TAF:

METAR-TAF

שדות תעופה :

פורט-או-פרנס, האיטי

קו רוחב: 18-34N, קו אורך: 072-18W, גובה: 31מטר

תצפית מזג אוויר נוכחית

הדו"ח נערך לפני 45דקות, בשעה 23:59 UTC
רוח 16קשר מכיוון מזרח
טמפרטורת 31 צלסיוס
לחות 63%
לחץ 1014 hPa

METAR: MTPP 122359Z AUTO 10016KT //// ////// 31/23 Q1013 A2993 NOSIG

זמן: 20:44 (00:44 UTC)

תחזית

הדו"ח נערך לפני 7 שעות ו 44דקות, בשעה 17:00 UTC
תחזית בתוקף מ 12 ב 18 UTC עד 13 ב 18 UTC
רוח 16קשר מכיוון מזרח/דרום-מזרח
ראות: 8000מטר
מעט עננים בגובה 2800רגל
הסתברות 30% :
זמנית מ -
12 ב 18 UTC עד 12 ב 23 UTC
רוח 15קשר מכיוון מזרח/צפון-מזרח עם משבים עד 25קשר
מ 13 ב 0600UTC
רוח 10קשר מכיוון מזרח/צפון-מזרח
ראות: 7000מטר
מעט עננים בגובה 2000רגל
יעשה מ
13 ב 12 UTC עד 13 ב 14 UTC
רוח 8קשר מכיוון מערב

TAF: MTPP 121700Z 1218/1318 12016KT 8000 FEW028 PROB30 TEMPO 1218/1223 06015G25KT FM130600 06010KT 7000 FEW020 BECMG 1312/1314 28008KT

תצפיות ותחזיות מזג אוויר לגבי יותר מ- 4,000 שדות תעופה ברחבי העולם. דוחות METAR ו- TAF.

התחנות הזמינות מסומנות בנקודות צהובות ואדומות על גבי המפה.

העבר את העכבר לנקודה הצבעונית על מנת לראות את שם התחנה.

לאחר מכן, לחץ כדי לראות את תוכן ואת תחזיות מזג האוויר.

כדי לשנות את המפה: לחץ על הכפתורים הירוקים עם הפלוס השחור כדי להתקרב; על הכפתור הירוק עם המקף כדי להתרחק; או בחיצים הירוקים למפות סמוכות.


METAR-TAF: